sensor_id;sensor_type;location;lat;lon;timestamp;pressure;altitude;pressure_sealevel;temperature;humidity
13767;BME280;47980;48.794;9.176;2023-08-07T00:01:20;98075.66;;;13.67;90.88
13767;BME280;47980;48.794;9.176;2023-08-07T00:03:52;98070.50;;;13.59;91.71
13767;BME280;47980;48.794;9.176;2023-08-07T00:06:23;98072.72;;;13.57;92.71
13767;BME280;47980;48.794;9.176;2023-08-07T00:08:55;98072.63;;;13.53;89.28
13767;BME280;47980;48.794;9.176;2023-08-07T00:11:27;98084.69;;;13.63;91.14
13767;BME280;47980;48.794;9.176;2023-08-07T00:14:00;98077.28;;;13.56;91.66
13767;BME280;47980;48.794;9.176;2023-08-07T00:16:32;98080.97;;;13.67;90.81
13767;BME280;47980;48.794;9.176;2023-08-07T00:19:03;98082.72;;;13.60;89.36
13767;BME280;47980;48.794;9.176;2023-08-07T00:21:35;98088.38;;;13.58;90.07
13767;BME280;47980;48.794;9.176;2023-08-07T00:24:08;98092.16;;;13.57;90.28
13767;BME280;47980;48.794;9.176;2023-08-07T00:26:39;98086.81;;;13.57;89.60
13767;BME280;47980;48.794;9.176;2023-08-07T00:29:12;98089.41;;;13.54;88.50
13767;BME280;47980;48.794;9.176;2023-08-07T00:31:43;98090.50;;;13.68;88.64
13767;BME280;47980;48.794;9.176;2023-08-07T00:34:15;98093.19;;;13.68;89.50
13767;BME280;47980;48.794;9.176;2023-08-07T00:36:46;98095.34;;;13.63;89.33
13767;BME280;47980;48.794;9.176;2023-08-07T00:39:18;98104.38;;;13.58;88.18
13767;BME280;47980;48.794;9.176;2023-08-07T00:41:49;98095.50;;;13.54;87.18
13767;BME280;47980;48.794;9.176;2023-08-07T00:44:22;98117.94;;;13.53;88.70
13767;BME280;47980;48.794;9.176;2023-08-07T00:46:54;98109.19;;;13.68;87.51
13767;BME280;47980;48.794;9.176;2023-08-07T00:49:25;98114.19;;;13.70;88.29
13767;BME280;47980;48.794;9.176;2023-08-07T00:51:57;98109.88;;;13.65;86.34
13767;BME280;47980;48.794;9.176;2023-08-07T00:54:29;98110.75;;;13.69;86.95
13767;BME280;47980;48.794;9.176;2023-08-07T00:57:08;98127.31;;;13.79;87.86
13767;BME280;47980;48.794;9.176;2023-08-07T00:59:42;98120.56;;;13.65;85.02
13767;BME280;47980;48.794;9.176;2023-08-07T01:02:14;98123.03;;;13.58;85.13
13767;BME280;47980;48.794;9.176;2023-08-07T01:04:46;98118.84;;;13.73;86.48
13767;BME280;47980;48.794;9.176;2023-08-07T01:07:18;98117.81;;;13.62;84.89
13767;BME280;47980;48.794;9.176;2023-08-07T01:09:49;98124.25;;;13.77;86.27
13767;BME280;47980;48.794;9.176;2023-08-07T01:12:26;98121.41;;;13.69;85.13
13767;BME280;47980;48.794;9.176;2023-08-07T01:15:03;98119.59;;;13.73;86.55
13767;BME280;47980;48.794;9.176;2023-08-07T01:17:38;98129.13;;;13.75;86.62
13767;BME280;47980;48.794;9.176;2023-08-07T01:20:11;98133.25;;;13.72;85.72
13767;BME280;47980;48.794;9.176;2023-08-07T01:22:44;98125.03;;;13.77;86.03
13767;BME280;47980;48.794;9.176;2023-08-07T01:25:15;98117.34;;;13.76;85.31
13767;BME280;47980;48.794;9.176;2023-08-07T01:27:53;98123.44;;;13.76;83.36
13767;BME280;47980;48.794;9.176;2023-08-07T01:30:32;98114.44;;;13.65;84.60
13767;BME280;47980;48.794;9.176;2023-08-07T01:33:09;98115.81;;;13.75;82.54
13767;BME280;47980;48.794;9.176;2023-08-07T01:35:46;98122.34;;;13.77;84.10
13767;BME280;47980;48.794;9.176;2023-08-07T01:38:21;98112.56;;;13.65;82.67
13767;BME280;47980;48.794;9.176;2023-08-07T01:40:56;98114.59;;;13.88;81.03
13767;BME280;47980;48.794;9.176;2023-08-07T01:43:28;98116.16;;;13.73;82.06
13767;BME280;47980;48.794;9.176;2023-08-07T01:46:01;98112.19;;;13.83;81.13
13767;BME280;47980;48.794;9.176;2023-08-07T01:48:33;98111.25;;;13.75;80.25
13767;BME280;47980;48.794;9.176;2023-08-07T01:51:04;98111.25;;;13.75;78.95
13767;BME280;47980;48.794;9.176;2023-08-07T01:53:37;98118.84;;;13.73;79.23
13767;BME280;47980;48.794;9.176;2023-08-07T01:56:09;98124.00;;;13.66;81.51
13767;BME280;47980;48.794;9.176;2023-08-07T01:58:40;98118.66;;;13.82;80.51
13767;BME280;47980;48.794;9.176;2023-08-07T02:01:11;98118.66;;;13.82;78.52
13767;BME280;47980;48.794;9.176;2023-08-07T02:03:43;98134.66;;;13.82;79.98
13767;BME280;47980;48.794;9.176;2023-08-07T02:06:14;98126.22;;;13.95;77.52
13767;BME280;47980;48.794;9.176;2023-08-07T02:08:47;98116.84;;;13.86;78.35
13767;BME280;47980;48.794;9.176;2023-08-07T02:11:19;98122.09;;;13.82;78.78
13767;BME280;47980;48.794;9.176;2023-08-07T02:13:51;98123.03;;;13.90;78.84
13767;BME280;47980;48.794;9.176;2023-08-07T02:16:22;98115.63;;;13.83;77.07
13767;BME280;47980;48.794;9.176;2023-08-07T02:18:54;98130.16;;;13.86;78.22
13767;BME280;47980;48.794;9.176;2023-08-07T02:21:25;98135.31;;;13.79;78.60
13767;BME280;47980;48.794;9.176;2023-08-07T02:23:58;98129.03;;;13.87;78.79
13767;BME280;47980;48.794;9.176;2023-08-07T02:26:29;98137.22;;;13.78;77.95
13767;BME280;47980;48.794;9.176;2023-08-07T02:29:01;98143.50;;;13.86;78.51
13767;BME280;47980;48.794;9.176;2023-08-07T02:31:34;98139.38;;;13.88;77.98
13767;BME280;47980;48.794;9.176;2023-08-07T02:34:05;98142.47;;;13.75;78.67
13767;BME280;47980;48.794;9.176;2023-08-07T02:36:37;98148.94;;;13.73;79.53
13767;BME280;47980;48.794;9.176;2023-08-07T02:39:10;98134.66;;;13.66;77.82
13767;BME280;47980;48.794;9.176;2023-08-07T02:41:41;98144.00;;;13.76;77.50
13767;BME280;47980;48.794;9.176;2023-08-07T02:44:13;98137.13;;;13.75;78.05
13767;BME280;47980;48.794;9.176;2023-08-07T02:46:44;98138.09;;;13.66;79.05
13767;BME280;47980;48.794;9.176;2023-08-07T02:49:16;98150.38;;;13.55;77.98
13767;BME280;47980;48.794;9.176;2023-08-07T02:51:47;98140.56;;;13.59;77.87
13767;BME280;47980;48.794;9.176;2023-08-07T02:54:20;98144.88;;;13.64;77.72
13767;BME280;47980;48.794;9.176;2023-08-07T02:56:52;98150.47;;;13.59;75.19
13767;BME280;47980;48.794;9.176;2023-08-07T02:59:23;98143.84;;;13.53;75.97
13767;BME280;47980;48.794;9.176;2023-08-07T03:01:56;98130.06;;;13.51;77.30
13767;BME280;47980;48.794;9.176;2023-08-07T03:04:27;98146.41;;;13.49;77.09
13767;BME280;47980;48.794;9.176;2023-08-07T03:06:59;98153.63;;;13.48;75.83
13767;BME280;47980;48.794;9.176;2023-08-07T03:09:32;98140.41;;;13.52;75.92
13767;BME280;47980;48.794;9.176;2023-08-07T03:12:05;98144.00;;;13.60;75.43
13767;BME280;47980;48.794;9.176;2023-08-07T03:14:36;98150.00;;;13.41;77.25
13767;BME280;47980;48.794;9.176;2023-08-07T03:17:08;98146.13;;;13.38;76.55
13767;BME280;47980;48.794;9.176;2023-08-07T03:19:41;98159.13;;;13.40;75.99
13767;BME280;47980;48.794;9.176;2023-08-07T03:22:13;98136.50;;;13.34;77.03
13767;BME280;47980;48.794;9.176;2023-08-07T03:24:48;98166.09;;;13.44;77.02
13767;BME280;47980;48.794;9.176;2023-08-07T03:27:19;98145.88;;;13.43;76.27
13767;BME280;47980;48.794;9.176;2023-08-07T03:29:51;98148.97;;;13.45;76.39
13767;BME280;47980;48.794;9.176;2023-08-07T03:32:22;98153.03;;;13.55;76.87
13767;BME280;47980;48.794;9.176;2023-08-07T03:34:54;98145.91;;;13.59;75.98
13767;BME280;47980;48.794;9.176;2023-08-07T03:37:25;98153.63;;;13.48;77.80
13767;BME280;47980;48.794;9.176;2023-08-07T03:39:58;98154.75;;;13.47;77.12
13767;BME280;47980;48.794;9.176;2023-08-07T03:42:29;98144.34;;;13.42;76.58
13767;BME280;47980;48.794;9.176;2023-08-07T03:45:01;98151.19;;;13.43;76.82
13767;BME280;47980;48.794;9.176;2023-08-07T03:47:32;98149.75;;;13.46;76.81
13767;BME280;47980;48.794;9.176;2023-08-07T03:50:05;98158.16;;;13.32;77.17
13767;BME280;47980;48.794;9.176;2023-08-07T03:52:36;98149.06;;;13.33;77.59
13767;BME280;47980;48.794;9.176;2023-08-07T03:55:09;98159.38;;;13.51;77.75
13767;BME280;47980;48.794;9.176;2023-08-07T03:57:41;98158.59;;;13.50;77.34
13767;BME280;47980;48.794;9.176;2023-08-07T04:00:13;98160.00;;;13.44;77.61
13767;BME280;47980;48.794;9.176;2023-08-07T04:02:45;98166.69;;;13.54;76.39
13767;BME280;47980;48.794;9.176;2023-08-07T04:05:16;98162.13;;;13.54;76.33
13767;BME280;47980;48.794;9.176;2023-08-07T04:07:48;98153.97;;;13.47;76.23
13767;BME280;47980;48.794;9.176;2023-08-07T04:10:20;98155.00;;;13.42;77.65
13767;BME280;47980;48.794;9.176;2023-08-07T04:12:52;98150.94;;;13.33;77.33
13767;BME280;47980;48.794;9.176;2023-08-07T04:15:23;98154.56;;;13.40;77.88
13767;BME280;47980;48.794;9.176;2023-08-07T04:17:55;98160.13;;;13.35;77.85
13767;BME280;47980;48.794;9.176;2023-08-07T04:20:26;98159.28;;;13.31;77.31
13767;BME280;47980;48.794;9.176;2023-08-07T04:22:58;98167.63;;;13.45;77.41
13767;BME280;47980;48.794;9.176;2023-08-07T04:25:30;98164.53;;;13.43;78.10
13767;BME280;47980;48.794;9.176;2023-08-07T04:28:02;98171.25;;;13.37;77.61
13767;BME280;47980;48.794;9.176;2023-08-07T04:30:34;98177.25;;;13.34;78.66
13767;BME280;47980;48.794;9.176;2023-08-07T04:33:05;98178.56;;;13.56;77.43
13767;BME280;47980;48.794;9.176;2023-08-07T04:35:37;98173.81;;;13.49;77.54
13767;BME280;47980;48.794;9.176;2023-08-07T04:38:09;98185.88;;;13.59;76.40
13767;BME280;47980;48.794;9.176;2023-08-07T04:40:45;98184.19;;;13.67;76.37
13767;BME280;47980;48.794;9.176;2023-08-07T04:43:18;98190.34;;;13.55;76.00
13767;BME280;47980;48.794;9.176;2023-08-07T04:45:50;98187.00;;;13.58;77.89
13767;BME280;47980;48.794;9.176;2023-08-07T04:48:22;98188.28;;;13.64;76.47
13767;BME280;47980;48.794;9.176;2023-08-07T04:50:56;98180.06;;;13.69;76.50
13767;BME280;47980;48.794;9.176;2023-08-07T04:53:28;98191.72;;;13.65;75.20
13767;BME280;47980;48.794;9.176;2023-08-07T04:56:00;98185.38;;;13.69;75.81
13767;BME280;47980;48.794;9.176;2023-08-07T04:58:34;98194.75;;;13.63;76.87
13767;BME280;47980;48.794;9.176;2023-08-07T05:01:06;98192.78;;;13.76;75.76
13767;BME280;47980;48.794;9.176;2023-08-07T05:03:39;98202.09;;;13.98;75.21
13767;BME280;47980;48.794;9.176;2023-08-07T05:06:10;98192.78;;;14.08;74.29
13767;BME280;47980;48.794;9.176;2023-08-07T05:08:42;98191.75;;;13.96;73.59
13767;BME280;47980;48.794;9.176;2023-08-07T05:11:14;98198.38;;;13.87;73.71
13767;BME280;47980;48.794;9.176;2023-08-07T05:13:46;98189.19;;;13.84;75.49
13767;BME280;47980;48.794;9.176;2023-08-07T05:16:18;98197.59;;;13.86;74.63
13767;BME280;47980;48.794;9.176;2023-08-07T05:18:50;98197.53;;;13.99;74.73
13767;BME280;47980;48.794;9.176;2023-08-07T05:21:21;98198.53;;;13.94;74.76
13767;BME280;47980;48.794;9.176;2023-08-07T05:23:53;98192.88;;;14.11;74.67
13767;BME280;47980;48.794;9.176;2023-08-07T05:26:26;98200.47;;;14.09;74.09
13767;BME280;47980;48.794;9.176;2023-08-07T05:28:59;98193.66;;;14.28;72.61
13767;BME280;47980;48.794;9.176;2023-08-07T05:31:31;98198.47;;;14.38;73.13
13767;BME280;47980;48.794;9.176;2023-08-07T05:34:02;98204.00;;;14.49;73.51
13767;BME280;47980;48.794;9.176;2023-08-07T05:36:34;98212.38;;;14.63;72.54
13767;BME280;47980;48.794;9.176;2023-08-07T05:39:05;98221.47;;;14.78;71.97
13767;BME280;47980;48.794;9.176;2023-08-07T05:41:39;98217.69;;;14.79;70.83
13767;BME280;47980;48.794;9.176;2023-08-07T05:44:10;98225.34;;;14.80;72.41
13767;BME280;47980;48.794;9.176;2023-08-07T05:46:42;98225.50;;;14.87;71.16
13767;BME280;47980;48.794;9.176;2023-08-07T05:49:13;98223.34;;;14.93;71.02
13767;BME280;47980;48.794;9.176;2023-08-07T05:51:46;98226.50;;;14.99;70.39
13767;BME280;47980;48.794;9.176;2023-08-07T05:54:17;98222.56;;;14.92;69.74
13767;BME280;47980;48.794;9.176;2023-08-07T05:56:50;98229.75;;;15.08;69.43
13767;BME280;47980;48.794;9.176;2023-08-07T05:59:22;98227.34;;;15.03;70.44
13767;BME280;47980;48.794;9.176;2023-08-07T06:01:53;98238.38;;;14.82;69.75
13767;BME280;47980;48.794;9.176;2023-08-07T06:04:25;98232.44;;;14.73;73.03
13767;BME280;47980;48.794;9.176;2023-08-07T06:06:56;98236.72;;;14.77;71.68
13767;BME280;47980;48.794;9.176;2023-08-07T06:09:28;98238.09;;;14.87;70.13
13767;BME280;47980;48.794;9.176;2023-08-07T06:12:01;98245.22;;;15.18;70.60
13767;BME280;47980;48.794;9.176;2023-08-07T06:14:33;98250.06;;;14.93;70.02
13767;BME280;47980;48.794;9.176;2023-08-07T06:17:04;98254.16;;;15.26;69.93
13767;BME280;47980;48.794;9.176;2023-08-07T06:19:36;98254.72;;;15.35;68.75
13767;BME280;47980;48.794;9.176;2023-08-07T06:22:18;98260.63;;;15.44;68.06
13767;BME280;47980;48.794;9.176;2023-08-07T06:24:50;98265.25;;;15.08;69.92
13767;BME280;47980;48.794;9.176;2023-08-07T06:27:23;98263.25;;;14.86;70.96
13767;BME280;47980;48.794;9.176;2023-08-07T06:29:55;98263.34;;;15.09;70.97
13767;BME280;47980;48.794;9.176;2023-08-07T06:32:27;98268.25;;;15.07;71.48
13767;BME280;47980;48.794;9.176;2023-08-07T06:34:58;98257.06;;;15.36;70.09
13767;BME280;47980;48.794;9.176;2023-08-07T06:37:30;98255.00;;;15.49;68.94
13767;BME280;47980;48.794;9.176;2023-08-07T06:40:01;98249.56;;;15.65;68.70
13767;BME280;47980;48.794;9.176;2023-08-07T06:42:35;98250.44;;;15.69;68.68
13767;BME280;47980;48.794;9.176;2023-08-07T06:45:07;98255.50;;;15.74;69.01
13767;BME280;47980;48.794;9.176;2023-08-07T06:47:38;98261.69;;;15.78;69.68
13767;BME280;47980;48.794;9.176;2023-08-07T06:50:10;98269.63;;;15.94;68.61
13767;BME280;47980;48.794;9.176;2023-08-07T06:52:41;98265.81;;;15.56;69.67
13767;BME280;47980;48.794;9.176;2023-08-07T06:55:13;98266.38;;;15.85;67.87
13767;BME280;47980;48.794;9.176;2023-08-07T06:57:46;98266.69;;;16.03;66.03
13767;BME280;47980;48.794;9.176;2023-08-07T07:00:17;98271.22;;;15.99;67.92
13767;BME280;47980;48.794;9.176;2023-08-07T07:02:49;98279.69;;;16.24;66.21
13767;BME280;47980;48.794;9.176;2023-08-07T07:05:21;98278.53;;;16.02;63.81
13767;BME280;47980;48.794;9.176;2023-08-07T07:07:52;98269.75;;;17.00;61.24
13767;BME280;47980;48.794;9.176;2023-08-07T07:10:24;98274.81;;;17.69;58.63
13767;BME280;47980;48.794;9.176;2023-08-07T07:12:57;98267.06;;;17.30;58.98
13767;BME280;47980;48.794;9.176;2023-08-07T07:15:29;98276.50;;;16.91;60.03
13767;BME280;47980;48.794;9.176;2023-08-07T07:18:00;98278.69;;;16.58;60.27
13767;BME280;47980;48.794;9.176;2023-08-07T07:20:32;98290.16;;;16.59;59.49
13767;BME280;47980;48.794;9.176;2023-08-07T07:23:03;98289.19;;;16.44;61.06
13767;BME280;47980;48.794;9.176;2023-08-07T07:25:35;98295.50;;;16.78;59.73
13767;BME280;47980;48.794;9.176;2023-08-07T07:28:08;98289.72;;;17.06;60.51
13767;BME280;47980;48.794;9.176;2023-08-07T07:30:39;98299.25;;;17.00;59.09
13767;BME280;47980;48.794;9.176;2023-08-07T07:33:11;98301.56;;;16.52;62.63
13767;BME280;47980;48.794;9.176;2023-08-07T07:35:43;98302.94;;;16.43;62.08
13767;BME280;47980;48.794;9.176;2023-08-07T07:38:15;98305.00;;;17.02;60.19
13767;BME280;47980;48.794;9.176;2023-08-07T07:40:46;98305.75;;;16.99;61.14
13767;BME280;47980;48.794;9.176;2023-08-07T07:43:19;98297.38;;;17.04;61.49
13767;BME280;47980;48.794;9.176;2023-08-07T07:45:51;98300.34;;;17.26;61.34
13767;BME280;47980;48.794;9.176;2023-08-07T07:48:22;98296.81;;;16.92;61.97
13767;BME280;47980;48.794;9.176;2023-08-07T07:50:58;98304.56;;;17.27;60.57
13767;BME280;47980;48.794;9.176;2023-08-07T07:53:30;98292.38;;;18.00;59.34
13767;BME280;47980;48.794;9.176;2023-08-07T07:56:03;98296.56;;;17.94;58.24
13767;BME280;47980;48.794;9.176;2023-08-07T07:58:37;98301.22;;;17.97;57.72
13767;BME280;47980;48.794;9.176;2023-08-07T08:01:08;98303.97;;;17.41;59.14
13767;BME280;47980;48.794;9.176;2023-08-07T08:03:40;98301.59;;;17.32;60.17
13767;BME280;47980;48.794;9.176;2023-08-07T08:06:13;98304.13;;;17.51;60.59
13767;BME280;47980;48.794;9.176;2023-08-07T08:08:45;98312.38;;;17.09;59.22
13767;BME280;47980;48.794;9.176;2023-08-07T08:11:16;98312.78;;;17.11;58.59
13767;BME280;47980;48.794;9.176;2023-08-07T08:13:49;98319.88;;;17.26;56.64
13767;BME280;47980;48.794;9.176;2023-08-07T08:16:21;98326.25;;;17.15;58.08
13767;BME280;47980;48.794;9.176;2023-08-07T08:18:52;98317.00;;;17.12;57.30
13767;BME280;47980;48.794;9.176;2023-08-07T08:21:24;98319.66;;;17.08;57.86
13767;BME280;47980;48.794;9.176;2023-08-07T08:23:55;98324.97;;;17.05;57.71
13767;BME280;47980;48.794;9.176;2023-08-07T08:26:27;98329.44;;;16.97;58.21
13767;BME280;47980;48.794;9.176;2023-08-07T08:29:00;98323.56;;;17.15;57.92
13767;BME280;47980;48.794;9.176;2023-08-07T08:31:31;98327.25;;;17.33;56.57
13767;BME280;47980;48.794;9.176;2023-08-07T08:34:03;98317.75;;;17.39;57.69
13767;BME280;47980;48.794;9.176;2023-08-07T08:36:34;98326.19;;;17.71;56.29
13767;BME280;47980;48.794;9.176;2023-08-07T08:39:07;98328.41;;;17.96;54.96
13767;BME280;47980;48.794;9.176;2023-08-07T08:41:39;98325.78;;;18.03;55.22
13767;BME280;47980;48.794;9.176;2023-08-07T08:44:16;98332.50;;;18.20;56.90
13767;BME280;47980;48.794;9.176;2023-08-07T08:46:49;98317.28;;;18.35;54.79
13767;BME280;47980;48.794;9.176;2023-08-07T08:49:28;98325.47;;;18.49;52.65
13767;BME280;47980;48.794;9.176;2023-08-07T08:52:02;98326.50;;;18.37;51.93
13767;BME280;47980;48.794;9.176;2023-08-07T08:54:34;98331.06;;;18.33;53.00
13767;BME280;47980;48.794;9.176;2023-08-07T08:57:07;98333.59;;;18.56;51.32
13767;BME280;47980;48.794;9.176;2023-08-07T08:59:41;98333.69;;;18.70;51.32
13767;BME280;47980;48.794;9.176;2023-08-07T09:02:13;98337.28;;;19.51;50.46
13767;BME280;47980;48.794;9.176;2023-08-07T09:04:45;98336.47;;;19.40;49.58
13767;BME280;47980;48.794;9.176;2023-08-07T09:07:17;98338.47;;;18.91;50.52
13767;BME280;47980;48.794;9.176;2023-08-07T09:09:51;98342.94;;;19.28;49.17
13767;BME280;47980;48.794;9.176;2023-08-07T09:12:26;98341.34;;;19.23;49.60
13767;BME280;47980;48.794;9.176;2023-08-07T09:15:02;98340.47;;;19.02;51.09
13767;BME280;47980;48.794;9.176;2023-08-07T09:17:39;98354.88;;;19.34;50.10
13767;BME280;47980;48.794;9.176;2023-08-07T09:20:11;98350.19;;;19.24;50.07
13767;BME280;47980;48.794;9.176;2023-08-07T09:22:45;98350.72;;;18.85;50.73
13767;BME280;47980;48.794;9.176;2023-08-07T09:25:28;98350.53;;;19.12;52.10
13767;BME280;47980;48.794;9.176;2023-08-07T09:28:01;98351.50;;;19.52;51.24
13767;BME280;47980;48.794;9.176;2023-08-07T09:30:36;98352.41;;;19.08;50.79
13767;BME280;47980;48.794;9.176;2023-08-07T09:33:08;98355.03;;;18.49;52.84
13767;BME280;47980;48.794;9.176;2023-08-07T09:35:40;98361.53;;;18.92;50.77
13767;BME280;47980;48.794;9.176;2023-08-07T09:38:12;98362.22;;;18.38;52.80
13767;BME280;47980;48.794;9.176;2023-08-07T09:40:43;98364.78;;;18.27;51.49
13767;BME280;47980;48.794;9.176;2023-08-07T09:43:21;98378.38;;;18.86;52.55
13767;BME280;47980;48.794;9.176;2023-08-07T09:46:02;98373.75;;;18.83;49.94
13767;BME280;47980;48.794;9.176;2023-08-07T09:48:39;98383.28;;;19.32;49.92
13767;BME280;47980;48.794;9.176;2023-08-07T09:51:11;98371.34;;;19.22;49.39
13767;BME280;47980;48.794;9.176;2023-08-07T09:53:43;98375.59;;;19.30;51.07
13767;BME280;47980;48.794;9.176;2023-08-07T09:56:15;98387.25;;;19.52;49.75
13767;BME280;47980;48.794;9.176;2023-08-07T09:58:47;98374.13;;;19.40;50.23
13767;BME280;47980;48.794;9.176;2023-08-07T10:01:21;98377.16;;;20.22;49.22
13767;BME280;47980;48.794;9.176;2023-08-07T10:03:52;98391.72;;;20.03;48.74
13767;BME280;47980;48.794;9.176;2023-08-07T10:06:24;98370.66;;;20.41;47.70
13767;BME280;47980;48.794;9.176;2023-08-07T10:08:56;98374.84;;;20.17;48.01
13767;BME280;47980;48.794;9.176;2023-08-07T10:11:29;98379.94;;;20.61;48.74
13767;BME280;47980;48.794;9.176;2023-08-07T10:14:01;98371.72;;;20.01;48.79
13767;BME280;47980;48.794;9.176;2023-08-07T10:16:34;98376.09;;;20.55;47.70
13767;BME280;47980;48.794;9.176;2023-08-07T10:19:09;98363.31;;;20.20;47.89
13767;BME280;47980;48.794;9.176;2023-08-07T10:21:41;98368.59;;;19.88;48.42
13767;BME280;47980;48.794;9.176;2023-08-07T10:24:15;98381.38;;;20.09;47.54
13767;BME280;47980;48.794;9.176;2023-08-07T10:26:48;98376.41;;;20.25;47.60
13767;BME280;47980;48.794;9.176;2023-08-07T10:29:21;98380.91;;;19.85;48.04
13767;BME280;47980;48.794;9.176;2023-08-07T10:31:58;98384.81;;;20.02;48.08
13767;BME280;47980;48.794;9.176;2023-08-07T10:34:33;98377.69;;;19.58;48.60
13767;BME280;47980;48.794;9.176;2023-08-07T10:37:06;98383.00;;;19.47;48.95
13767;BME280;47980;48.794;9.176;2023-08-07T10:40:02;98384.75;;;19.15;47.43
13767;BME280;47980;48.794;9.176;2023-08-07T10:42:50;98378.59;;;18.70;49.25
13767;BME280;47980;48.794;9.176;2023-08-07T10:45:23;98380.31;;;18.85;49.76
13767;BME280;47980;48.794;9.176;2023-08-07T10:48:17;98377.44;;;19.15;51.00
13767;BME280;47980;48.794;9.176;2023-08-07T10:50:50;98382.78;;;19.12;49.90
13767;BME280;47980;48.794;9.176;2023-08-07T10:53:29;98379.34;;;19.77;49.15
13767;BME280;47980;48.794;9.176;2023-08-07T10:56:07;98377.94;;;20.23;49.02
13767;BME280;47980;48.794;9.176;2023-08-07T10:58:50;98385.56;;;20.03;48.69
13767;BME280;47980;48.794;9.176;2023-08-07T11:01:40;98382.47;;;19.93;48.73
13767;BME280;47980;48.794;9.176;2023-08-07T11:04:14;98382.97;;;20.31;48.85
13767;BME280;47980;48.794;9.176;2023-08-07T11:06:47;98380.91;;;19.89;47.61
13767;BME280;47980;48.794;9.176;2023-08-07T11:09:19;98383.69;;;19.30;49.14
13767;BME280;47980;48.794;9.176;2023-08-07T11:11:52;98393.13;;;19.65;50.50
13767;BME280;47980;48.794;9.176;2023-08-07T11:14:24;98404.63;;;19.62;49.10
13767;BME280;47980;48.794;9.176;2023-08-07T11:16:55;98399.59;;;19.60;48.96
13767;BME280;47980;48.794;9.176;2023-08-07T11:19:28;98407.63;;;19.49;48.80
13767;BME280;47980;48.794;9.176;2023-08-07T11:22:00;98407.50;;;19.28;49.25
13767;BME280;47980;48.794;9.176;2023-08-07T11:24:33;98398.66;;;19.31;50.49
13767;BME280;47980;48.794;9.176;2023-08-07T11:27:08;98397.31;;;19.00;51.53
13767;BME280;47980;48.794;9.176;2023-08-07T11:29:40;98400.28;;;18.88;50.97
13767;BME280;47980;48.794;9.176;2023-08-07T11:32:11;98397.69;;;19.02;50.71
13767;BME280;47980;48.794;9.176;2023-08-07T11:34:48;98392.31;;;19.02;52.20
13767;BME280;47980;48.794;9.176;2023-08-07T11:37:20;98393.09;;;19.03;51.54
13767;BME280;47980;48.794;9.176;2023-08-07T11:39:52;98393.16;;;19.13;52.48
13767;BME280;47980;48.794;9.176;2023-08-07T11:42:27;98397.72;;;18.61;53.43
13767;BME280;47980;48.794;9.176;2023-08-07T11:44:59;98400.97;;;18.40;53.12
13767;BME280;47980;48.794;9.176;2023-08-07T11:47:30;98400.44;;;18.24;55.29
13767;BME280;47980;48.794;9.176;2023-08-07T11:50:02;98402.47;;;18.00;54.04
13767;BME280;47980;48.794;9.176;2023-08-07T11:52:34;98408.25;;;18.02;54.45
13767;BME280;47980;48.794;9.176;2023-08-07T11:55:06;98409.22;;;17.61;56.79
13767;BME280;47980;48.794;9.176;2023-08-07T11:57:40;98408.41;;;18.17;54.75
13767;BME280;47980;48.794;9.176;2023-08-07T12:00:15;98414.47;;;18.10;54.79
13767;BME280;47980;48.794;9.176;2023-08-07T12:02:47;98410.28;;;18.50;54.59
13767;BME280;47980;48.794;9.176;2023-08-07T12:05:19;98404.94;;;18.53;54.62
13767;BME280;47980;48.794;9.176;2023-08-07T12:07:51;98414.59;;;19.03;54.17
13767;BME280;47980;48.794;9.176;2023-08-07T12:10:23;98420.06;;;18.69;55.57
13767;BME280;47980;48.794;9.176;2023-08-07T12:12:59;98407.19;;;18.85;52.63
13767;BME280;47980;48.794;9.176;2023-08-07T12:15:37;98413.81;;;19.54;52.65
13767;BME280;47980;48.794;9.176;2023-08-07T12:18:08;98417.81;;;19.81;52.09
13767;BME280;47980;48.794;9.176;2023-08-07T12:20:42;98423.94;;;19.75;52.18
13767;BME280;47980;48.794;9.176;2023-08-07T12:23:14;98427.44;;;19.89;52.96
13767;BME280;47980;48.794;9.176;2023-08-07T12:25:46;98422.59;;;19.43;52.56
13767;BME280;47980;48.794;9.176;2023-08-07T12:28:20;98424.13;;;19.44;54.47
13767;BME280;47980;48.794;9.176;2023-08-07T12:30:53;98428.53;;;19.74;53.59
13767;BME280;47980;48.794;9.176;2023-08-07T12:33:25;98426.56;;;19.64;54.77
13767;BME280;47980;48.794;9.176;2023-08-07T12:35:59;98435.25;;;20.09;54.13
13767;BME280;47980;48.794;9.176;2023-08-07T12:38:31;98430.25;;;20.14;52.22
13767;BME280;47980;48.794;9.176;2023-08-07T12:41:12;98419.09;;;20.16;52.28
13767;BME280;47980;48.794;9.176;2023-08-07T12:43:49;98417.66;;;20.51;51.93
13767;BME280;47980;48.794;9.176;2023-08-07T12:46:21;98412.28;;;20.58;51.03
13767;BME280;47980;48.794;9.176;2023-08-07T12:48:53;98415.75;;;20.65;50.92
13767;BME280;47980;48.794;9.176;2023-08-07T12:51:25;98417.31;;;20.95;49.86
13767;BME280;47980;48.794;9.176;2023-08-07T12:53:56;98416.94;;;20.72;50.99
13767;BME280;47980;48.794;9.176;2023-08-07T12:56:28;98410.34;;;20.58;50.47
13767;BME280;47980;48.794;9.176;2023-08-07T12:59:01;98416.38;;;20.09;51.99
13767;BME280;47980;48.794;9.176;2023-08-07T13:01:33;98416.06;;;20.35;50.83
13767;BME280;47980;48.794;9.176;2023-08-07T13:04:04;98420.38;;;20.61;49.86
13767;BME280;47980;48.794;9.176;2023-08-07T13:06:36;98414.16;;;20.43;49.70
13767;BME280;47980;48.794;9.176;2023-08-07T13:09:07;98425.25;;;20.09;50.75
13767;BME280;47980;48.794;9.176;2023-08-07T13:11:39;98422.81;;;19.79;51.82
13767;BME280;47980;48.794;9.176;2023-08-07T13:14:12;98423.56;;;19.76;51.66
13767;BME280;47980;48.794;9.176;2023-08-07T13:16:43;98416.84;;;19.48;52.21
13767;BME280;47980;48.794;9.176;2023-08-07T13:19:15;98426.06;;;19.47;52.74
13767;BME280;47980;48.794;9.176;2023-08-07T13:21:47;98424.38;;;19.21;54.54
13767;BME280;47980;48.794;9.176;2023-08-07T13:24:18;98432.03;;;19.19;54.76
13767;BME280;47980;48.794;9.176;2023-08-07T13:26:51;98415.09;;;19.15;56.18
13767;BME280;47980;48.794;9.176;2023-08-07T13:29:24;98425.72;;;19.56;55.95